Terminal Aerodrome Forecast
Issued by NWS Melbourne, FL

Home | Current Version | Previous Version | Text Only | Print | Product List | Glossary On
Versions: 1 2 3 4 5 6 7 8 9 10 11 12 13 14 15 16 17 18 19
621
FTUS42 KMLB 090539
TAFVRB
TAF
KVRB 090539Z 0906/1006 36007KT P6SM OVC100
     FM090800 35011KT P6SM VCSH FEW050 OVC120
     FM091500 36013KT P6SM VCSH SCT050 OVC130=

USA.gov is the U.S. government's official web portal to all federal, state and local government web resources and services.